Brock, Nebraska
Current Conditions -  °F | °C
As of 3:35 PM on Wednesday 17 Dec 2014 (Local Time) from KAFK Reporting Station
Overcast Overcast  
Wind Chill: 19°   Ceiling: 8500
Heat Index: 26°   Visibility: 10mi
Dew Point: 15°   Wind: 6mph
Humidity: 64%   Direction: 70°ENE
Pressure: 30.25"   Gusts: NA
Location:  40.48°N, 95.96°W
Report Text: KAFK 172135Z AUTO 07005KT 10SM OVC085 M03/M09 A3025 RMK AO2 T10341093
Loading
Personal Weather Stations






























Interactive Weather Map New forecast layout! Learn more

10-Day Weather Forecast

Advertisements
Track Severe Weather on mobile